Time;durP1;ratioP1;P1;durP2;ratioP2;P2;SDS_P1;SDS_P2;PMS_P1;PMS_P2;Temp;Humidity;BMP_temperature;BMP_pressure;BME280_temperature;BME280_humidity;BME280_pressure;Samples;Min_cycle;Max_cycle;Signal;HPM_P1;HPM_P2
2023/10/07 00:02:21;;;;;;;13.70;7.43;;;15.10;94.20;;;;;;5023874;28;20022;-81
2023/10/07 00:04:47;;;;;;;15.05;7.70;;;15.00;94.20;;;;;;5020072;28;20040;-79
2023/10/07 00:07:14;;;;;;;14.05;7.03;;;15.00;94.30;;;;;;5019954;28;20080;-75
2023/10/07 00:09:43;;;;;;;14.60;7.35;;;15.00;94.30;;;;;;5007658;28;20421;-78
2023/10/07 00:12:16;;;;;;;17.27;8.18;;;15.00;94.30;;;;;;5021804;28;20030;-79
2023/10/07 00:14:42;;;;;;;13.60;7.43;;;15.00;94.40;;;;;;5016094;28;20246;-75
2023/10/07 00:17:16;;;;;;;14.50;7.43;;;15.00;94.40;;;;;;5017828;28;20495;-75
2023/10/07 00:19:46;;;;;;;12.35;7.22;;;15.00;94.40;;;;;;5012731;28;20033;-77
2023/10/07 00:22:14;;;;;;;17.27;7.68;;;15.00;94.50;;;;;;5019219;28;20487;-77
2023/10/07 00:24:43;;;;;;;13.88;7.25;;;15.00;94.60;;;;;;5021137;28;20094;-83
2023/10/07 00:27:30;;;;;;;14.65;8.85;;;14.90;94.60;;;;;;5022172;28;20526;-76
2023/10/07 00:30:00;;;;;;;17.05;8.23;;;14.90;94.70;;;;;;5021757;28;20033;-80
2023/10/07 00:32:32;;;;;;;16.02;8.25;;;14.90;94.70;;;;;;5018088;28;20069;-78
2023/10/07 00:35:01;;;;;;;12.50;7.40;;;14.90;94.90;;;;;;5016165;28;20038;-77
2023/10/07 00:37:33;;;;;;;13.77;8.10;;;14.90;95.00;;;;;;5019873;28;20025;-76
2023/10/07 00:40:00;;;;;;;16.58;8.90;;;15.00;95.00;;;;;;5015444;28;20037;-75
2023/10/07 00:42:28;;;;;;;16.17;8.52;;;15.00;95.00;;;;;;5020558;28;20029;-78
2023/10/07 00:44:55;;;;;;;16.10;8.95;;;15.00;95.00;;;;;;5012197;28;20029;-81
2023/10/07 00:47:21;;;;;;;16.95;8.57;;;15.00;94.90;;;;;;5015746;28;20022;-78
2023/10/07 00:49:53;;;;;;;16.75;9.18;;;15.00;95.00;;;;;;5017207;28;20490;-76
2023/10/07 00:52:28;;;;;;;19.92;9.07;;;15.00;95.00;;;;;;5020145;28;20025;-78
2023/10/07 00:55:09;;;;;;;;;;;15.00;95.00;;;;;;5014260;28;20041;-83
2023/10/07 00:57:37;;;;;;;14.88;9.18;;;15.00;95.00;;;;;;5021991;28;19967;-75
2023/10/07 01:03:17;;;;;;;15.93;9.45;;;15.00;95.00;;;;;;5015754;28;20044;-78
2023/10/07 01:05:38;;;;;;;18.33;9.20;;;15.10;95.00;;;;;;5017618;28;20041;-78
2023/10/07 01:08:06;;;;;;;17.65;8.35;;;15.10;95.00;;;;;;5012868;28;20341;-77
2023/10/07 01:10:31;;;;;;;16.70;8.77;;;15.10;95.00;;;;;;5019204;28;20052;-78
2023/10/07 01:13:03;;;;;;;18.20;8.57;;;15.10;95.00;;;;;;5015034;28;20025;-76
2023/10/07 01:15:30;;;;;;;17.13;9.45;;;15.10;95.00;;;;;;5020138;28;20120;-77
2023/10/07 01:18:03;;;;;;;16.27;8.57;;;15.10;95.10;;;;;;5014150;28;20413;-83
2023/10/07 01:20:48;;;;;;;15.05;9.00;;;15.10;95.00;;;;;;5015000;28;20032;-74
2023/10/07 01:23:18;;;;;;;15.70;8.63;;;15.10;95.10;;;;;;5021297;28;20124;-85
2023/10/07 01:25:44;;;;;;;15.18;8.55;;;15.10;95.00;;;;;;5022418;28;20049;-76
2023/10/07 01:28:15;;;;;;;16.35;9.13;;;15.10;95.00;;;;;;5015417;28;20049;-77
2023/10/07 01:33:51;;;;;;;15.65;8.35;;;15.10;94.80;;;;;;4982587;28;20029;-80
2023/10/07 01:36:24;;;;;;;16.65;7.93;;;15.10;94.80;;;;;;5013782;28;20026;-77
2023/10/07 01:38:53;;;;;;;13.57;8.48;;;15.10;94.80;;;;;;5018744;28;20041;-76
2023/10/07 01:41:21;;;;;;;14.20;7.82;;;15.10;94.60;;;;;;5011162;28;20056;-76
2023/10/07 01:46:27;;;;;;;15.05;7.72;;;15.00;94.60;;;;;;5018029;28;20423;-80
2023/10/07 01:49:12;;;;;;;18.42;9.02;;;15.00;94.70;;;;;;5020996;28;20156;-76
2023/10/07 01:51:44;;;;;;;14.48;8.38;;;15.00;94.60;;;;;;5016256;28;20084;-80
2023/10/07 01:54:11;;;;;;;14.32;7.63;;;15.00;94.60;;;;;;5016272;28;20033;-81
2023/10/07 01:56:38;;;;;;;16.42;8.88;;;15.00;94.70;;;;;;5012768;28;20068;-77
2023/10/07 02:01:46;;;;;;;17.95;8.43;;;14.90;94.70;;;;;;5017109;28;20239;-76
2023/10/07 02:04:17;;;;;;;15.73;8.40;;;14.90;94.70;;;;;;5020422;28;20038;-80
2023/10/07 02:06:52;;;;;;;16.42;8.30;;;14.90;94.80;;;;;;5020398;28;20503;-78
2023/10/07 02:09:28;;;;;;;16.75;8.63;;;15.00;95.00;;;;;;5021531;28;20131;-76
2023/10/07 02:12:08;;;;;;;16.77;8.55;;;15.00;95.20;;;;;;5022149;28;20029;-79
2023/10/07 02:14:34;;;;;;;15.30;7.88;;;15.10;95.30;;;;;;5020412;28;20045;-77
2023/10/07 02:17:01;;;;;;;14.70;7.57;;;15.10;95.40;;;;;;5014931;28;20018;-77
2023/10/07 02:19:31;;;;;;;17.52;8.43;;;15.20;95.40;;;;;;5021994;28;20065;-82
2023/10/07 02:22:03;;;;;;;13.95;7.35;;;15.20;95.40;;;;;;5020897;28;20445;-78
2023/10/07 02:24:34;;;;;;;15.45;8.05;;;15.20;95.50;;;;;;5018335;28;20514;-76
2023/10/07 02:27:19;;;;;;;15.95;7.28;;;15.20;95.50;;;;;;5022384;28;20531;-79
2023/10/07 02:29:50;;;;;;;15.45;7.90;;;15.20;95.50;;;;;;5013699;28;20029;-78
2023/10/07 02:32:17;;;;;;;14.90;8.30;;;15.30;95.50;;;;;;5017537;28;20025;-78
2023/10/07 02:34:54;;;;;;;16.08;7.63;;;15.30;95.50;;;;;;5016655;28;20407;-83
2023/10/07 02:37:31;;;;;;;15.00;7.85;;;15.30;95.50;;;;;;5016601;28;20033;-80
2023/10/07 02:40:16;;;;;;;15.15;7.90;;;15.30;95.50;;;;;;5018758;28;20053;-80
2023/10/07 02:42:46;;;;;;;12.30;7.35;;;15.30;95.60;;;;;;5020461;28;20018;-80
2023/10/07 02:45:20;;;;;;;16.50;8.30;;;15.40;95.50;;;;;;5017141;28;20041;-82
2023/10/07 02:47:53;;;;;;;14.63;7.43;;;15.40;95.50;;;;;;5011258;28;20042;-78
2023/10/07 02:50:20;;;;;;;18.27;8.32;;;15.40;95.50;;;;;;5014665;28;20399;-83
2023/10/07 02:52:46;;;;;;;15.18;7.95;;;15.40;95.50;;;;;;5021254;28;20033;-76
2023/10/07 02:57:55;;;;;;;17.05;8.27;;;15.40;95.50;;;;;;5019304;28;20056;-76
2023/10/07 03:00:37;;;;;;;13.23;8.30;;;15.40;95.50;;;;;;5021091;28;20111;-76
2023/10/07 03:06:06;;;;;;;16.73;7.18;;;15.40;95.70;;;;;;4983722;28;20038;-76
2023/10/07 03:08:50;;;;;;;14.27;8.02;;;15.40;95.80;;;;;;5015377;28;20042;-78
2023/10/07 03:11:23;;;;;;;15.30;7.73;;;15.50;95.80;;;;;;5025517;28;20514;-77
2023/10/07 03:13:50;;;;;;;15.13;8.05;;;15.50;95.80;;;;;;5019917;28;20038;-78
2023/10/07 03:24:10;;;;;;;13.73;7.85;;;15.60;96.00;;;;;;5023225;28;20068;-81
2023/10/07 03:26:37;;;;;;;17.73;9.15;;;15.60;95.90;;;;;;5019914;28;20491;-80
2023/10/07 03:29:05;;;;;;;16.35;8.80;;;15.60;96.00;;;;;;5023043;28;20033;-76
2023/10/07 03:31:47;;;;;;;17.05;8.77;;;15.60;96.00;;;;;;5017063;28;20773;-81
2023/10/07 03:34:13;;;;;;;19.02;9.50;;;15.60;96.00;;;;;;5015913;28;20045;-75
2023/10/07 03:36:45;;;;;;;17.58;8.57;;;15.60;96.00;;;;;;5021037;28;20583;-77
2023/10/07 03:39:22;;;;;;;18.27;9.15;;;15.60;96.00;;;;;;5020516;28;20091;-77
2023/10/07 03:41:55;;;;;;;17.88;8.13;;;15.60;96.10;;;;;;5024790;28;20135;-78
2023/10/07 03:44:22;;;;;;;18.17;8.88;;;15.60;96.10;;;;;;5022006;28;20040;-77
2023/10/07 03:46:54;;;;;;;16.42;7.93;;;15.60;96.20;;;;;;5018648;28;20030;-77
2023/10/07 03:49:24;;;;;;;13.05;8.15;;;15.60;96.10;;;;;;5018741;28;20109;-85
2023/10/07 03:52:03;;;;;;;15.63;9.00;;;15.60;96.10;;;;;;5021021;28;20030;-80
2023/10/07 03:54:33;;;;;;;20.77;9.35;;;15.60;96.20;;;;;;5011934;28;20054;-78
2023/10/07 03:57:00;;;;;;;15.27;9.18;;;15.60;96.20;;;;;;5016644;28;20037;-79
2023/10/07 03:59:27;;;;;;;15.63;9.02;;;15.60;96.20;;;;;;5019218;28;20037;-75
2023/10/07 04:01:56;;;;;;;15.82;9.15;;;15.60;96.20;;;;;;5032260;28;20009;-78
2023/10/07 04:04:23;;;;;;;15.57;9.10;;;15.60;96.20;;;;;;5039647;28;20037;-77
2023/10/07 04:06:50;;;;;;;16.25;8.48;;;15.60;96.10;;;;;;5029204;28;20029;-78
2023/10/07 04:09:16;;;;;;;15.73;8.95;;;15.60;96.20;;;;;;5022437;28;20133;-75
2023/10/07 04:11:48;;;;;;;15.13;8.20;;;15.60;96.20;;;;;;5018622;28;20037;-76
2023/10/07 04:14:31;;;;;;;19.88;9.65;;;15.60;96.10;;;;;;5018195;28;20140;-75
2023/10/07 04:17:06;;;;;;;16.42;8.75;;;15.60;96.10;;;;;;5020057;28;20030;-77
2023/10/07 04:19:38;;;;;;;15.05;8.52;;;15.60;96.10;;;;;;5019886;28;20069;-74
2023/10/07 04:22:07;;;;;;;17.05;9.38;;;15.60;96.10;;;;;;5020158;28;20029;-76
2023/10/07 04:24:35;;;;;;;17.85;9.40;;;15.60;96.00;;;;;;5013846;28;20054;-81
2023/10/07 04:27:03;;;;;;;15.50;9.05;;;15.60;95.90;;;;;;5016578;28;20463;-76
2023/10/07 04:29:33;;;;;;;15.75;9.13;;;15.50;95.80;;;;;;5020299;28;20113;-77
2023/10/07 04:32:10;;;;;;;14.50;8.85;;;15.50;95.80;;;;;;5018153;28;20029;-78
2023/10/07 04:34:48;;;;;;;21.95;10.35;;;15.50;95.80;;;;;;5020293;28;20053;-81
2023/10/07 04:37:16;;;;;;;14.80;9.40;;;15.50;95.80;;;;;;5018298;28;20029;-78
2023/10/07 04:42:20;;;;;;;18.90;10.05;;;15.40;95.80;;;;;;5015640;28;20490;-78
2023/10/07 04:53:02;;;;;;;17.00;10.20;;;15.30;95.90;;;;;;5008230;28;20091;-80
2023/10/07 04:55:28;;;;;;;17.87;10.37;;;15.30;95.90;;;;;;5015197;28;20111;-79
2023/10/07 05:03:14;;;;;;;19.15;10.85;;;15.30;95.90;;;;;;5018565;28;20049;-80
2023/10/07 05:05:43;;;;;;;19.27;10.27;;;15.30;95.90;;;;;;5018727;28;20702;-81
2023/10/07 05:08:16;;;;;;;20.85;11.43;;;15.30;96.00;;;;;;5017106;28;20033;-85
2023/10/07 05:10:42;;;;;;;19.17;10.67;;;15.20;95.90;;;;;;5015929;28;20483;-80
2023/10/07 05:13:09;;;;;;;17.13;11.23;;;15.20;96.00;;;;;;5016584;28;20424;-79
2023/10/07 05:15:38;;;;;;;17.02;11.15;;;15.10;96.00;;;;;;5013659;28;20038;-81
2023/10/07 05:18:05;;;;;;;18.95;10.18;;;15.10;96.00;;;;;;5015039;28;20120;-80
2023/10/07 05:20:37;;;;;;;20.63;11.60;;;15.10;96.00;;;;;;5016821;28;20070;-75
2023/10/07 05:23:04;;;;;;;19.65;10.02;;;15.10;96.00;;;;;;5019986;28;20036;-77
2023/10/07 05:25:37;;;;;;;15.15;9.88;;;15.10;96.10;;;;;;5016758;28;20055;-80
2023/10/07 05:28:10;;;;;;;18.80;11.70;;;15.10;96.10;;;;;;5019220;28;20045;-76
2023/10/07 05:30:36;;;;;;;19.77;10.80;;;15.10;96.10;;;;;;5015490;28;20044;-81
2023/10/07 05:33:08;;;;;;;19.98;12.05;;;15.10;96.00;;;;;;5016895;28;20056;-79
2023/10/07 05:35:37;;;;;;;21.17;11.68;;;15.10;96.00;;;;;;5017217;28;20045;-80
2023/10/07 05:38:09;;;;;;;18.58;10.40;;;15.10;96.10;;;;;;5013271;28;20066;-80
2023/10/07 05:40:40;;;;;;;16.73;11.25;;;15.10;96.10;;;;;;5016183;28;20488;-76
2023/10/07 05:43:07;;;;;;;20.15;10.85;;;15.10;96.10;;;;;;5020026;28;20037;-76
2023/10/07 05:45:34;;;;;;;18.45;10.88;;;15.10;96.20;;;;;;5015038;28;20451;-82
2023/10/07 05:48:03;;;;;;;17.48;10.48;;;15.10;96.10;;;;;;5020482;28;20034;-78
2023/10/07 05:50:32;;;;;;;17.90;10.85;;;15.10;96.10;;;;;;5018083;28;20753;-77
2023/10/07 05:53:04;;;;;;;19.63;11.15;;;15.10;96.10;;;;;;5018455;28;20026;-76
2023/10/07 05:55:31;;;;;;;18.88;10.63;;;15.10;96.10;;;;;;5015107;28;20211;-81
2023/10/07 05:57:58;;;;;;;19.02;11.07;;;15.10;96.10;;;;;;5016944;28;20512;-76
2023/10/07 06:00:25;;;;;;;18.00;10.52;;;15.10;96.10;;;;;;5019189;28;20395;-80
2023/10/07 06:02:53;;;;;;;17.33;10.75;;;15.10;96.10;;;;;;5015966;28;20105;-80
2023/10/07 06:05:20;;;;;;;22.10;11.70;;;15.10;96.10;;;;;;5016385;28;20041;-77
2023/10/07 06:07:46;;;;;;;19.85;10.45;;;15.10;96.20;;;;;;5015980;28;20025;-76
2023/10/07 06:10:12;;;;;;;14.85;9.60;;;15.10;96.20;;;;;;5020615;28;20713;-82
2023/10/07 06:12:40;;;;;;;23.08;12.25;;;15.10;96.20;;;;;;5022281;28;20084;-77
2023/10/07 06:15:10;;;;;;;23.02;11.05;;;15.10;96.20;;;;;;5018820;28;20041;-77
2023/10/07 06:17:36;;;;;;;21.25;10.88;;;15.10;96.10;;;;;;5022605;28;20022;-80
2023/10/07 06:20:14;;;;;;;19.48;11.13;;;15.10;96.10;;;;;;5023902;28;20058;-74
2023/10/07 06:22:48;;;;;;;17.00;11.20;;;15.20;96.20;;;;;;5024255;28;20028;-83
2023/10/07 06:25:15;;;;;;;16.65;10.40;;;15.20;96.20;;;;;;5025160;28;20041;-75
2023/10/07 06:27:43;;;;;;;17.58;9.90;;;15.20;96.30;;;;;;5018983;28;20056;-74
2023/10/07 06:30:11;;;;;;;18.88;10.30;;;15.30;96.30;;;;;;5020606;28;20464;-77
2023/10/07 06:32:50;;;;;;;18.73;10.88;;;15.30;96.30;;;;;;5022653;28;20112;-77
2023/10/07 06:35:21;;;;;;;20.35;10.70;;;15.30;96.20;;;;;;5021419;28;20107;-75
2023/10/07 06:37:47;;;;;;;17.23;10.05;;;15.30;96.10;;;;;;5010267;28;20095;-74
2023/10/07 06:40:25;;;;;;;25.80;11.40;;;15.30;96.10;;;;;;5019812;28;20042;-81
2023/10/07 06:42:52;;;;;;;35.35;12.90;;;15.30;96.10;;;;;;5012281;28;20029;-77
2023/10/07 06:45:18;;;;;;;26.88;12.65;;;15.40;96.10;;;;;;5020271;28;20124;-77
2023/10/07 06:47:46;;;;;;;26.67;13.18;;;15.40;96.10;;;;;;5013979;28;20101;-76
2023/10/07 06:50:26;;;;;;;27.15;11.20;;;15.40;96.00;;;;;;5017646;28;20107;-77
2023/10/07 06:52:55;;;;;;;21.70;11.55;;;15.40;95.90;;;;;;5018182;28;20028;-75
2023/10/07 06:55:21;;;;;;;19.35;10.27;;;15.50;95.90;;;;;;5016356;28;20190;-75
2023/10/07 06:57:48;;;;;;;19.75;10.18;;;15.50;95.80;;;;;;5014276;28;20085;-73
2023/10/07 07:00:27;;;;;;;20.65;10.60;;;15.60;95.80;;;;;;5016548;28;20124;-74
2023/10/07 07:02:59;;;;;;;17.70;10.07;;;15.60;95.70;;;;;;5017159;28;20514;-75
2023/10/07 07:05:26;;;;;;;18.48;10.55;;;15.60;95.70;;;;;;5020496;28;20108;-74
2023/10/07 07:07:56;;;;;;;16.85;10.30;;;15.60;95.60;;;;;;5014196;28;20593;-74
2023/10/07 07:10:28;;;;;;;19.95;9.95;;;15.70;95.50;;;;;;5015815;28;20270;-74
2023/10/07 07:13:13;;;;;;;16.10;10.05;;;15.70;95.40;;;;;;5017117;28;20049;-74
2023/10/07 07:15:41;;;;;;;16.27;9.82;;;15.80;95.20;;;;;;5018182;28;20044;-74
2023/10/07 07:23:35;;;;;;;18.75;9.40;;;16.00;94.70;;;;;;5018810;28;20048;-75
2023/10/07 07:28:27;;;;;;;17.08;9.57;;;16.10;94.30;;;;;;5015004;28;20034;-74
2023/10/07 07:30:57;;;;;;;15.50;8.90;;;16.10;94.30;;;;;;5021326;28;20353;-74
2023/10/07 07:33:35;;;;;;;12.30;8.73;;;16.10;93.80;;;;;;5019700;28;20076;-73
2023/10/07 07:36:06;;;;;;;21.75;9.77;;;16.10;93.60;;;;;;5013509;28;20081;-74
2023/10/07 07:38:43;;;;;;;13.60;8.85;;;16.10;93.50;;;;;;5014640;28;20091;-75
2023/10/07 07:41:09;;;;;;;19.08;10.07;;;16.20;93.50;;;;;;5018075;28;20073;-75
2023/10/07 07:43:37;;;;;;;18.02;9.60;;;16.20;93.20;;;;;;5010394;28;20511;-75
2023/10/07 07:46:51;;;;;;;20.23;9.65;;;16.30;93.30;;;;;;5013947;28;20061;-75
2023/10/07 07:49:08;;;;;;;17.77;9.27;;;16.30;93.20;;;;;;5016552;28;20113;-75
2023/10/07 07:51:37;;;;;;;17.20;9.32;;;16.40;93.20;;;;;;5017185;28;20060;-74
2023/10/07 07:54:07;;;;;;;14.90;9.77;;;16.50;92.90;;;;;;5013815;28;20349;-75
2023/10/07 07:56:34;;;;;;;19.45;10.70;;;16.60;92.80;;;;;;5019139;28;20081;-75
2023/10/07 07:59:18;;;;;;;15.00;8.70;;;16.60;92.70;;;;;;5020109;28;20488;-78
2023/10/07 08:01:45;;;;;;;16.75;9.70;;;16.70;92.50;;;;;;5016203;28;20679;-76
2023/10/07 08:04:37;;;;;;;16.75;10.02;;;16.60;92.40;;;;;;5017486;28;20055;-79
2023/10/07 08:07:17;;;;;;;18.30;10.02;;;16.70;92.70;;;;;;5017232;28;20045;-74
2023/10/07 08:09:44;;;;;;;19.25;9.98;;;16.90;92.70;;;;;;5016313;28;20041;-76
2023/10/07 08:12:10;;;;;;;16.08;9.40;;;17.10;92.40;;;;;;5016952;28;20030;-78
2023/10/07 08:14:38;;;;;;;15.07;9.68;;;17.20;92.10;;;;;;5012567;28;20049;-74
2023/10/07 08:17:08;;;;;;;15.10;9.73;;;17.40;91.70;;;;;;5014552;28;20025;-76
2023/10/07 08:19:34;;;;;;;18.83;9.35;;;17.60;91.20;;;;;;5020226;28;20029;-79
2023/10/07 08:22:02;;;;;;;18.65;10.70;;;17.80;90.60;;;;;;5015045;28;20037;-78
2023/10/07 08:24:31;;;;;;;17.20;9.95;;;18.00;90.50;;;;;;5007761;28;20341;-75
2023/10/07 08:27:03;;;;;;;19.05;9.90;;;18.10;90.20;;;;;;5011458;28;20265;-76
2023/10/07 08:29:33;;;;;;;20.30;9.80;;;18.30;89.30;;;;;;5012304;28;20033;-80
2023/10/07 08:32:00;;;;;;;15.60;8.93;;;18.50;89.10;;;;;;5014255;28;20057;-74
2023/10/07 08:34:34;;;;;;;21.52;9.85;;;18.60;88.90;;;;;;5010252;28;20474;-74
2023/10/07 08:37:02;;;;;;;17.35;9.82;;;18.70;88.70;;;;;;5016007;28;20509;-74
2023/10/07 08:39:28;;;;;;;20.52;9.88;;;18.90;88.00;;;;;;5012373;28;20519;-76
2023/10/07 08:41:58;;;;;;;21.77;9.63;;;19.10;87.70;;;;;;5019305;28;20544;-76
2023/10/07 08:44:33;;;;;;;20.70;9.57;;;19.10;87.60;;;;;;5016646;28;20056;-75
2023/10/07 08:47:11;;;;;;;18.95;8.82;;;19.30;87.40;;;;;;5008956;28;20121;-75
2023/10/07 08:49:38;;;;;;;15.77;8.25;;;19.40;86.90;;;;;;5009890;28;20038;-72
2023/10/07 08:52:10;;;;;;;17.10;7.43;;;19.30;86.50;;;;;;5015128;28;20057;-73
2023/10/07 08:54:37;;;;;;;18.92;8.30;;;19.40;87.10;;;;;;5009638;28;20108;-74
2023/10/07 08:57:19;;;;;;;14.73;7.80;;;19.50;86.30;;;;;;5011537;28;20257;-72
2023/10/07 08:59:56;;;;;;;14.40;7.75;;;19.70;85.70;;;;;;5015288;28;20488;-73
2023/10/07 09:02:27;;;;;;;18.52;7.45;;;19.80;85.30;;;;;;5029522;28;20046;-75
2023/10/07 09:04:55;;;;;;;16.98;7.05;;;19.90;84.00;;;;;;5028475;28;20063;-74
2023/10/07 09:07:22;;;;;;;14.25;6.43;;;20.10;84.10;;;;;;5021377;28;20111;-77
2023/10/07 09:09:48;;;;;;;17.67;7.95;;;20.10;83.50;;;;;;5009576;28;20610;-73
2023/10/07 09:12:14;;;;;;;15.50;7.40;;;20.10;82.60;;;;;;5015638;28;20033;-74
2023/10/07 09:14:57;;;;;;;16.85;7.30;;;20.20;82.70;;;;;;5010919;28;20754;-76
2023/10/07 09:17:26;;;;;;;14.15;7.10;;;20.10;82.10;;;;;;5011381;28;20110;-74
2023/10/07 09:19:55;;;;;;;18.80;7.55;;;20.10;82.70;;;;;;5011714;28;20038;-74
2023/10/07 09:22:45;;;;;;;15.52;7.40;;;20.10;83.50;;;;;;5015688;28;20017;-73
2023/10/07 09:25:29;;;;;;;12.65;6.78;;;20.40;82.30;;;;;;5019735;28;20032;-73
2023/10/07 09:28:01;;;;;;;13.18;7.53;;;20.60;82.40;;;;;;5021303;28;20018;-73
2023/10/07 09:33:14;;;;;;;15.63;6.85;;;20.50;81.30;;;;;;5014678;28;20068;-72
2023/10/07 09:35:46;;;;;;;15.23;7.18;;;20.60;81.70;;;;;;5011514;28;20680;-73
2023/10/07 09:38:22;;;;;;;14.32;7.25;;;20.60;81.50;;;;;;5017619;28;20037;-72
2023/10/07 09:43:26;;;;;;;14.80;7.47;;;20.70;81.80;;;;;;5009348;28;20034;-73
2023/10/07 09:45:53;;;;;;;15.93;7.70;;;20.80;81.40;;;;;;5013541;28;20487;-75
2023/10/07 09:48:31;;;;;;;15.35;6.82;;;20.80;82.30;;;;;;5013370;28;20117;-76
2023/10/07 09:51:02;;;;;;;15.18;7.10;;;20.60;81.10;;;;;;5009925;28;20026;-75
2023/10/07 09:53:30;;;;;;;14.48;7.32;;;20.70;81.50;;;;;;5017165;28;20104;-74
2023/10/07 09:56:20;;;;;;;15.05;7.53;;;21.00;81.00;;;;;;5016738;28;20762;-74
2023/10/07 09:59:25;;;;;;;17.75;7.55;;;21.10;81.00;;;;;;5019151;28;20088;-75
2023/10/07 10:02:16;;;;;;;19.90;8.70;;;21.20;81.20;;;;;;5017034;28;20029;-74
2023/10/07 10:05:12;;;;;;;15.00;6.80;;;21.30;80.00;;;;;;5017939;28;20292;-75
2023/10/07 10:08:19;;;;;;;11.75;6.53;;;21.40;79.70;;;;;;5012564;28;20040;-76
2023/10/07 10:10:57;;;;;;;13.15;6.75;;;21.50;79.90;;;;;;5005112;28;20045;-74
2023/10/07 10:13:29;;;;;;;17.40;7.40;;;21.20;80.00;;;;;;5009468;28;20038;-72
2023/10/07 10:16:00;;;;;;;10.65;6.00;;;21.30;80.20;;;;;;5008730;28;20052;-73
2023/10/07 10:18:40;;;;;;;13.32;6.68;;;21.40;80.60;;;;;;5005651;28;20147;-74
2023/10/07 10:21:09;;;;;;;13.40;7.15;;;21.60;79.60;;;;;;5013913;28;20033;-75
2023/10/07 10:23:37;;;;;;;13.02;6.30;;;21.60;79.40;;;;;;5009265;28;20033;-78
2023/10/07 10:29:15;;;;;;;15.48;6.55;;;21.80;79.60;;;;;;4991274;28;20033;-74
2023/10/07 10:31:49;;;;;;;13.60;6.32;;;21.80;78.80;;;;;;5007378;28;20533;-74
2023/10/07 10:34:15;;;;;;;12.57;5.85;;;21.90;79.40;;;;;;5024125;28;20592;-76
2023/10/07 10:36:48;;;;;;;15.32;6.13;;;22.10;79.20;;;;;;5017018;28;20518;-78
2023/10/07 10:39:31;;;;;;;11.93;5.85;;;22.30;78.10;;;;;;5013790;28;21755;-75
2023/10/07 10:42:10;;;;;;;12.40;5.40;;;22.30;77.60;;;;;;5023042;28;20427;-77
2023/10/07 10:44:47;;;;;;;11.00;5.40;;;22.30;77.30;;;;;;5012314;28;20034;-76
2023/10/07 10:47:18;;;;;;;13.95;5.15;;;22.10;77.30;;;;;;5008571;28;20456;-77
2023/10/07 10:49:44;;;;;;;14.75;5.70;;;22.30;77.70;;;;;;5014009;28;20364;-75
2023/10/07 10:52:12;;;;;;;11.10;5.15;;;22.30;78.00;;;;;;5015004;28;20038;-75
2023/10/07 10:54:40;;;;;;;12.85;5.13;;;22.60;78.10;;;;;;5013248;28;20054;-77
2023/10/07 10:57:07;;;;;;;12.18;5.60;;;22.60;77.10;;;;;;5017302;28;20498;-76
2023/10/07 10:59:47;;;;;;;11.45;4.75;;;22.80;76.60;;;;;;5009333;28;20042;-74
2023/10/07 11:02:17;;;;;;;11.38;5.25;;;22.60;75.90;;;;;;5015493;28;20029;-72
2023/10/07 11:05:02;;;;;;;12.18;5.35;;;22.60;75.90;;;;;;5019342;28;20124;-74
2023/10/07 11:07:30;;;;;;;11.40;5.15;;;22.40;76.10;;;;;;5021798;28;20388;-75
2023/10/07 11:09:57;;;;;;;14.77;6.32;;;22.30;76.30;;;;;;5023294;28;20038;-73
2023/10/07 11:12:27;;;;;;;13.32;4.90;;;22.40;76.90;;;;;;5016280;28;20045;-75
2023/10/07 11:15:13;;;;;;;13.95;5.45;;;22.60;76.70;;;;;;5013711;28;20124;-73
2023/10/07 11:17:51;;;;;;;12.45;5.32;;;22.70;76.60;;;;;;5019180;28;20419;-72
2023/10/07 11:20:19;;;;;;;11.93;5.00;;;22.90;75.70;;;;;;5018179;28;20084;-75
2023/10/07 11:22:48;;;;;;;14.30;5.35;;;23.00;73.80;;;;;;5020223;28;20017;-73
2023/10/07 11:25:14;;;;;;;11.63;4.85;;;22.90;73.90;;;;;;5017649;28;20037;-75
2023/10/07 11:27:43;;;;;;;10.43;4.53;;;22.90;74.30;;;;;;5017902;28;20026;-76
2023/10/07 11:30:14;;;;;;;14.20;4.85;;;22.70;74.30;;;;;;5019829;28;20046;-73
2023/10/07 11:32:40;;;;;;;13.50;4.95;;;22.80;74.40;;;;;;5018412;28;20037;-76
2023/10/07 11:35:20;;;;;;;12.55;4.85;;;23.10;75.70;;;;;;5015654;28;20149;-74
2023/10/07 11:37:59;;;;;;;13.10;5.47;;;23.30;74.00;;;;;;5010199;28;20104;-73
2023/10/07 11:40:29;;;;;;;13.20;5.57;;;22.90;74.20;;;;;;5008619;28;20395;-77
2023/10/07 11:42:58;;;;;;;12.40;4.50;;;23.00;75.00;;;;;;5016135;28;20472;-75
2023/10/07 11:45:26;;;;;;;11.63;4.30;;;23.30;73.90;;;;;;5017996;28;20123;-74
2023/10/07 11:47:56;;;;;;;11.18;4.60;;;23.50;73.60;;;;;;5012223;28;20430;-74
2023/10/07 11:50:23;;;;;;;12.63;5.47;;;23.40;72.50;;;;;;5020408;28;20037;-74
2023/10/07 11:52:48;;;;;;;11.50;5.10;;;23.40;72.60;;;;;;5011192;28;20032;-75
2023/10/07 11:55:17;;;;;;;8.57;4.43;;;23.20;73.40;;;;;;5014909;28;20046;-74
2023/10/07 11:57:43;;;;;;;12.30;5.18;;;23.20;73.00;;;;;;5020511;28;20049;-74
2023/10/07 12:00:13;;;;;;;11.48;5.32;;;23.40;72.80;;;;;;5014187;28;20022;-75
2023/10/07 12:02:39;;;;;;;12.00;5.13;;;23.30;72.10;;;;;;5019883;28;20021;-72
2023/10/07 12:05:07;;;;;;;12.27;4.53;;;23.20;72.40;;;;;;5018721;28;20033;-74
2023/10/07 12:07:36;;;;;;;11.32;4.53;;;23.40;71.30;;;;;;5019117;28;20025;-73
2023/10/07 12:10:06;;;;;;;12.70;5.68;;;23.70;70.70;;;;;;5020856;28;20587;-73
2023/10/07 12:12:32;;;;;;;11.30;4.70;;;23.70;70.30;;;;;;5016533;28;20032;-74
2023/10/07 12:14:59;;;;;;;10.98;4.43;;;23.80;70.20;;;;;;5012531;28;20076;-76
2023/10/07 12:17:25;;;;;;;13.35;4.88;;;24.00;69.90;;;;;;5020445;28;20025;-74
2023/10/07 12:19:51;;;;;;;11.45;4.97;;;24.10;69.30;;;;;;5020135;28;20178;-74
2023/10/07 12:22:16;;;;;;;11.55;4.32;;;24.00;69.70;;;;;;5019565;28;20459;-73
2023/10/07 12:24:42;;;;;;;10.18;4.20;;;23.90;70.10;;;;;;5017719;28;20056;-73
2023/10/07 12:27:10;;;;;;;9.80;4.80;;;23.60;69.00;;;;;;5020384;28;20030;-77
2023/10/07 12:29:36;;;;;;;10.52;4.82;;;23.60;68.70;;;;;;5019006;28;20033;-75
2023/10/07 12:32:02;;;;;;;10.35;4.32;;;23.40;70.00;;;;;;5021790;28;20025;-74
2023/10/07 12:34:30;;;;;;;10.90;4.47;;;23.60;70.00;;;;;;5015587;28;20108;-76
2023/10/07 12:36:55;;;;;;;9.30;4.70;;;23.80;69.80;;;;;;5018008;28;20025;-75
2023/10/07 12:39:21;;;;;;;9.07;4.32;;;24.00;68.40;;;;;;5013414;28;20032;-75
2023/10/07 12:41:48;;;;;;;9.05;3.70;;;24.10;67.80;;;;;;5015722;28;20444;-76
2023/10/07 12:44:14;;;;;;;9.27;4.00;;;24.20;68.10;;;;;;5010556;28;20342;-73
2023/10/07 12:46:41;;;;;;;9.68;4.25;;;24.10;67.40;;;;;;5015389;28;20041;-75
2023/10/07 12:49:10;;;;;;;10.75;4.93;;;24.00;66.80;;;;;;5015682;28;20030;-76
2023/10/07 12:51:38;;;;;;;14.25;4.93;;;23.90;68.00;;;;;;5015444;28;20038;-76
2023/10/07 12:54:08;;;;;;;10.93;5.25;;;23.90;68.20;;;;;;5017786;28;20503;-77
2023/10/07 12:56:37;;;;;;;10.80;4.38;;;24.10;68.60;;;;;;5014344;28;20199;-78
2023/10/07 12:59:17;;;;;;;9.60;3.97;;;24.20;67.10;;;;;;5009508;28;20037;-76
2023/10/07 13:01:51;;;;;;;10.38;4.35;;;24.20;66.80;;;;;;5012114;28;20065;-75
2023/10/07 13:04:25;;;;;;;11.03;4.30;;;24.40;66.90;;;;;;5017607;28;20439;-75
2023/10/07 13:07:00;;;;;;;11.52;5.20;;;24.50;66.30;;;;;;5013934;28;20435;-76
2023/10/07 13:09:30;;;;;;;9.57;4.15;;;24.50;65.90;;;;;;5014934;28;20021;-75
2023/10/07 13:11:59;;;;;;;10.82;5.03;;;24.50;67.00;;;;;;5012149;28;20289;-75
2023/10/07 13:14:28;;;;;;;10.52;4.35;;;24.50;66.90;;;;;;5012916;28;20053;-76
2023/10/07 13:16:57;;;;;;;10.98;4.63;;;24.60;65.30;;;;;;5021032;28;20026;-74
2023/10/07 13:19:26;;;;;;;9.32;4.60;;;24.50;65.70;;;;;;5010064;28;20472;-74
2023/10/07 13:21:59;;;;;;;9.45;4.65;;;24.20;65.50;;;;;;5014204;28;20484;-75
2023/10/07 13:24:26;;;;;;;10.93;4.43;;;24.10;64.60;;;;;;5019395;28;20034;-74
2023/10/07 13:26:51;;;;;;;10.60;4.32;;;24.20;65.50;;;;;;5021120;28;20026;-75
2023/10/07 13:29:17;;;;;;;9.15;4.18;;;24.10;65.30;;;;;;5022550;28;20396;-74
2023/10/07 13:31:43;;;;;;;9.27;4.10;;;24.30;65.80;;;;;;5015872;28;20038;-83
2023/10/07 13:34:10;;;;;;;10.88;4.75;;;24.50;66.10;;;;;;5017903;28;20096;-75
2023/10/07 13:36:42;;;;;;;11.80;5.07;;;24.40;65.10;;;;;;5018485;28;20028;-75
2023/10/07 13:39:17;;;;;;;14.07;5.28;;;24.60;65.90;;;;;;5009618;28;20037;-75
2023/10/07 13:41:47;;;;;;;10.68;4.70;;;24.50;66.80;;;;;;5017847;28;20053;-75
2023/10/07 13:44:16;;;;;;;11.23;5.22;;;24.60;66.00;;;;;;5020948;28;20548;-74
2023/10/07 13:46:43;;;;;;;8.95;4.38;;;24.50;65.60;;;;;;5019218;28;20456;-75
2023/10/07 13:49:09;;;;;;;12.02;4.90;;;24.70;66.70;;;;;;5015385;28;20033;-76
2023/10/07 13:51:41;;;;;;;11.50;4.45;;;24.80;66.50;;;;;;5017691;28;20041;-74
2023/10/07 13:54:38;;;;;;;14.57;5.15;;;24.60;65.90;;;;;;5014269;28;20041;-75